createdAt,value
2019-04-05T00:04:05.567Z,14.23
2019-04-05T00:09:09.079Z,13.37
2019-04-05T00:14:12.622Z,13.27
2019-04-05T00:19:16.150Z,13.97
2019-04-05T00:24:19.688Z,14.50
2019-04-05T00:29:22.968Z,15.63
2019-04-05T00:34:26.257Z,14.67
2019-04-05T00:39:29.806Z,14.80
2019-04-05T00:44:33.090Z,14.80
2019-04-05T00:49:36.626Z,17.07
2019-04-05T00:54:39.915Z,15.43
2019-04-05T00:59:43.206Z,15.23
2019-04-05T01:04:46.735Z,14.37
2019-04-05T01:09:50.020Z,13.43
2019-04-05T01:14:54.050Z,15.87
2019-04-05T01:20:00.387Z,19.03
2019-04-05T01:25:05.921Z,18.10
2019-04-05T01:30:11.910Z,16.80
2019-04-05T01:35:16.710Z,17.20
2019-04-05T01:40:20.003Z,18.87
2019-04-05T01:45:23.408Z,17.20
2019-04-05T01:50:26.772Z,18.47
2019-04-05T01:55:30.055Z,18.93
2019-04-05T02:00:33.415Z,16.60
2019-04-05T02:05:36.712Z,15.30
2019-04-05T02:10:40.078Z,15.77
2019-04-05T02:15:43.598Z,16.37
2019-04-05T02:20:46.952Z,17.37
2019-04-05T02:25:50.244Z,18.63
2019-04-05T02:30:53.556Z,18.47
2019-04-05T02:35:57.058Z,17.63
2019-04-05T02:41:01.764Z,17.37
2019-04-05T02:46:22.139Z,19.80
2019-04-05T02:51:10.931Z,23.83
2019-04-05T02:56:14.387Z,24.60
2019-04-05T03:01:18.387Z,24.03
2019-04-05T03:06:21.922Z,28.07
2019-04-05T03:11:28.526Z,28.87
2019-04-05T03:16:41.048Z,26.13
2019-04-05T03:21:41.290Z,31.33
2019-04-05T03:26:48.236Z,26.63
2019-04-05T03:31:51.995Z,27.10
2019-04-05T03:36:55.524Z,24.80
2019-04-05T03:41:59.352Z,27.07
2019-04-05T03:47:02.867Z,24.93
2019-04-05T03:52:06.886Z,24.03
2019-04-05T03:57:10.414Z,23.00
2019-04-05T04:02:13.710Z,26.97
2019-04-05T04:07:17.265Z,22.43
2019-04-05T04:12:20.543Z,29.37
2019-04-05T04:17:23.995Z,24.07
2019-04-05T04:22:30.731Z,26.03
2019-04-05T04:27:34.432Z,27.80
2019-04-05T04:32:37.789Z,22.03
2019-04-05T04:37:41.144Z,23.63
2019-04-05T04:42:44.501Z,22.07
2019-04-05T04:47:48.054Z,22.57
2019-04-05T04:52:51.760Z,21.73
2019-04-05T04:57:55.050Z,22.83
2019-04-05T05:02:58.644Z,22.80
2019-04-05T05:08:02.340Z,24.60
2019-04-05T05:13:06.134Z,23.03
2019-04-05T05:18:09.416Z,21.17
2019-04-05T05:23:13.302Z,21.50
2019-04-05T05:28:16.999Z,22.07
2019-04-05T05:33:20.315Z,23.27
2019-04-05T05:38:23.599Z,22.77
2019-04-05T05:43:26.946Z,20.73
2019-04-05T05:48:31.084Z,24.30
2019-04-05T05:53:34.664Z,22.13
2019-04-05T05:58:38.181Z,22.57
2019-04-05T06:03:41.714Z,22.83
2019-04-05T06:08:45.249Z,19.70
2019-04-05T06:13:48.553Z,22.60
2019-04-05T06:18:51.841Z,24.60
2019-04-05T06:23:55.192Z,22.63
2019-04-05T06:28:58.713Z,24.30
2019-04-05T06:34:02.248Z,25.73
2019-04-05T06:39:07.715Z,31.93
2019-04-05T06:44:11.006Z,34.27
2019-04-05T06:49:14.291Z,39.80
2019-04-05T06:54:17.828Z,36.80
2019-04-05T06:59:21.367Z,34.57
2019-04-05T07:04:25.014Z,36.50
2019-04-05T07:09:28.299Z,36.03
2019-04-05T07:14:31.572Z,32.83
2019-04-05T07:19:35.056Z,29.23
2019-04-05T07:24:38.295Z,30.60
2019-04-05T07:29:41.587Z,30.93
2019-04-05T07:34:44.869Z,32.27
2019-04-05T07:39:48.164Z,29.87
2019-04-05T07:44:51.462Z,27.40
2019-04-05T07:49:54.998Z,27.30
2019-04-05T07:54:58.297Z,26.40
2019-04-05T08:00:01.565Z,29.90
2019-04-05T08:05:07.020Z,25.70
2019-04-05T08:10:10.558Z,27.30
2019-04-05T08:15:14.173Z,23.80
2019-04-05T08:20:17.711Z,23.27
2019-04-05T08:25:21.324Z,24.30
2019-04-05T08:30:24.859Z,19.23
2019-04-05T08:35:28.412Z,18.73
2019-04-05T08:40:31.794Z,19.63
2019-04-05T08:45:35.259Z,21.37
2019-04-05T08:50:38.797Z,20.70
2019-04-05T08:55:42.336Z,20.50
2019-04-05T09:00:45.888Z,18.23
2019-04-05T09:05:49.482Z,21.20
2019-04-05T09:10:54.623Z,21.20
2019-04-05T09:15:57.821Z,21.97
2019-04-05T09:21:01.363Z,20.57
2019-04-05T09:26:05.055Z,20.70
2019-04-05T09:31:08.624Z,23.43
2019-04-05T09:36:11.967Z,18.30
2019-04-05T09:41:15.588Z,28.57
2019-04-05T09:46:19.138Z,21.33
2019-04-05T09:51:22.675Z,24.97
2019-04-05T09:56:25.974Z,22.63
2019-04-05T10:01:29.404Z,24.83
2019-04-05T10:06:32.805Z,19.27
2019-04-05T10:11:36.359Z,21.07
2019-04-05T10:16:39.736Z,20.57
2019-04-05T10:21:43.295Z,22.77
2019-04-05T10:26:46.823Z,18.33
2019-04-05T10:31:50.362Z,17.97
2019-04-05T10:36:53.643Z,18.40
2019-04-05T10:42:03.299Z,18.83
2019-04-05T10:47:02.842Z,19.37
2019-04-05T10:52:06.140Z,22.77
2019-04-05T10:57:09.693Z,26.50
2019-04-05T11:02:13.248Z,22.53
2019-04-05T11:07:16.528Z,22.77
2019-04-05T11:12:19.834Z,24.30
2019-04-05T11:17:23.115Z,24.40
2019-04-05T11:22:26.635Z,25.23
2019-04-05T11:27:30.174Z,20.83
2019-04-05T11:32:33.490Z,22.20
2019-04-05T11:37:39.388Z,20.23
2019-04-05T11:42:46.707Z,22.27
2019-04-05T11:47:53.539Z,18.93
2019-04-05T11:52:56.054Z,17.77
2019-04-05T11:57:59.412Z,15.03
2019-04-05T12:03:10.097Z,12.60
2019-04-05T12:08:13.409Z,12.60
2019-04-05T12:13:16.998Z,12.90
2019-04-05T12:18:20.531Z,12.03
2019-04-05T12:23:23.817Z,13.10
2019-04-05T12:28:27.116Z,11.90
2019-04-05T12:33:30.411Z,12.10
2019-04-05T12:38:34.265Z,14.53
2019-04-05T12:43:37.535Z,19.27
2019-04-05T12:48:40.816Z,24.87
2019-04-05T12:53:48.375Z,25.57
2019-04-05T12:58:53.656Z,20.73
2019-04-05T13:03:58.660Z,23.40
2019-04-05T13:09:01.918Z,21.00
2019-04-05T13:14:05.203Z,20.93
2019-04-05T13:19:08.498Z,19.83
2019-04-05T13:24:11.767Z,18.23
2019-04-05T13:29:15.055Z,25.93
2019-04-05T13:34:18.475Z,28.87
2019-04-05T13:39:21.775Z,27.80
2019-04-05T13:44:25.067Z,29.90
2019-04-05T13:49:28.615Z,34.10
2019-04-05T13:54:31.914Z,38.63
2019-04-05T13:59:35.480Z,33.00
2019-04-05T14:04:38.769Z,31.90
2019-04-05T14:09:42.070Z,41.87
2019-04-05T14:14:48.760Z,31.57
2019-04-05T14:19:51.437Z,29.43
2019-04-05T14:24:56.662Z,25.60
2019-04-05T14:30:02.366Z,23.10
2019-04-05T14:35:09.046Z,22.33
2019-04-05T14:40:14.124Z,20.97
2019-04-05T14:45:17.594Z,25.33
2019-04-05T14:50:20.920Z,29.53
2019-04-05T14:55:24.492Z,26.23
2019-04-05T15:00:27.847Z,23.60
2019-04-05T15:05:31.112Z,27.40
2019-04-05T15:10:35.157Z,29.00
2019-04-05T15:15:38.696Z,28.47
2019-04-05T15:20:42.001Z,26.23
2019-04-05T15:25:49.551Z,26.40
2019-04-05T15:30:50.726Z,27.07
2019-04-05T15:35:54.014Z,25.43
2019-04-05T15:40:57.369Z,25.67
2019-04-05T15:46:00.853Z,28.03
2019-04-05T15:51:04.156Z,25.47
2019-04-05T15:56:09.208Z,21.87
2019-04-05T16:01:12.906Z,21.63
2019-04-05T16:06:16.470Z,25.43
2019-04-05T16:11:19.833Z,25.73
2019-04-05T16:16:24.193Z,24.70
2019-04-05T16:21:27.728Z,20.33
2019-04-05T16:26:33.150Z,24.83
2019-04-05T16:31:39.242Z,23.23
2019-04-05T16:36:43.114Z,27.73
2019-04-05T16:41:46.412Z,28.03
2019-04-05T16:46:49.685Z,31.27
2019-04-05T16:51:52.977Z,32.93
2019-04-05T16:56:56.259Z,29.03
2019-04-05T17:01:59.795Z,29.70
2019-04-05T17:07:03.077Z,40.57
2019-04-05T17:12:06.380Z,34.93
2019-04-05T17:17:10.032Z,33.17
2019-04-05T17:22:13.325Z,33.87
2019-04-05T17:27:16.603Z,38.23
2019-04-05T17:32:19.881Z,36.73
2019-04-05T17:37:26.425Z,33.27
2019-04-05T17:42:28.422Z,34.23
2019-04-05T17:47:31.769Z,34.07
2019-04-05T17:52:35.434Z,34.03
2019-04-05T17:57:38.794Z,38.47
2019-04-05T18:02:42.320Z,34.63
2019-04-05T18:07:45.947Z,35.33
2019-04-05T18:12:49.535Z,32.07
2019-04-05T18:17:52.824Z,38.43
2019-04-05T18:22:56.117Z,37.67
2019-04-05T18:27:59.647Z,38.13
2019-04-05T18:33:02.933Z,34.37
2019-04-05T18:38:06.460Z,34.53
2019-04-05T18:43:09.993Z,39.47
2019-04-05T18:48:13.288Z,36.10
2019-04-05T18:53:16.832Z,44.53
2019-04-05T18:58:20.122Z,39.17
2019-04-05T19:03:23.416Z,40.37
2019-04-05T19:08:38.696Z,39.00
2019-04-05T19:13:31.968Z,42.50
2019-04-05T19:18:35.421Z,36.00
2019-04-05T19:23:50.180Z,39.53
2019-04-05T19:28:43.997Z,36.90
2019-04-05T19:49:03.066Z,45.33
2019-04-05T19:54:06.595Z,44.03
2019-04-05T19:59:09.902Z,46.57
2019-04-05T20:04:13.426Z,48.57
2019-04-05T20:09:17.694Z,46.73
2019-04-05T20:14:20.984Z,47.97
2019-04-05T20:19:24.497Z,49.17
2019-04-05T20:24:28.027Z,37.73
2019-04-05T20:29:31.557Z,44.37
2019-04-05T20:34:34.852Z,39.57
2019-04-05T20:39:38.141Z,40.43
2019-04-05T20:44:41.659Z,52.60
2019-04-05T20:49:44.950Z,52.30
2019-04-05T20:54:48.231Z,57.97
2019-04-05T20:59:51.524Z,51.07
2019-04-05T21:04:55.066Z,56.20
2019-04-05T21:09:58.355Z,56.00
2019-04-05T21:15:01.661Z,59.00
2019-04-05T21:20:06.624Z,60.13
2019-04-05T21:25:10.312Z,57.03
2019-04-05T21:30:14.077Z,57.13
2019-04-05T21:35:17.363Z,51.77
2019-04-05T21:40:23.279Z,56.73
2019-04-05T21:45:26.809Z,57.27
2019-04-05T21:50:30.345Z,55.50
2019-04-05T21:55:33.878Z,59.30
2019-04-05T22:00:54.083Z,61.20
2019-04-05T22:05:57.626Z,57.83
2019-04-05T22:11:01.283Z,62.53
2019-04-05T22:16:04.564Z,58.40
2019-04-05T22:21:07.856Z,60.00
2019-04-05T22:26:11.376Z,71.97
2019-04-05T22:31:14.892Z,61.43
2019-04-05T22:36:18.179Z,64.40
2019-04-05T22:41:21.714Z,63.80
2019-04-05T22:46:25.232Z,69.73
2019-04-05T22:51:28.525Z,66.80
2019-04-05T22:56:31.805Z,65.93
2019-04-05T23:01:35.342Z,68.47
2019-04-05T23:06:38.862Z,66.93
2019-04-05T23:11:42.379Z,66.57
2019-04-05T23:16:45.900Z,68.50
2019-04-05T23:21:49.426Z,69.83
2019-04-05T23:26:52.706Z,63.30
2019-04-05T23:31:55.984Z,72.87
2019-04-05T23:36:59.530Z,69.33
2019-04-05T23:42:03.057Z,71.23
2019-04-05T23:47:06.353Z,70.63
2019-04-05T23:52:09.890Z,72.30
2019-04-05T23:57:13.190Z,74.60
